Time;durP1;ratioP1;P1;durP2;ratioP2;P2;SDS_P1;SDS_P2;PMS_P1;PMS_P2;Temp;Humidity;BMP_temperature;BMP_pressure;BME280_temperature;BME280_humidity;BME280_pressure;Samples;Min_cycle;Max_cycle;Signal;HPM_P1;HPM_P2
2019/05/30 00:00:09;;;;;;;14.05;12.3;;;;;;;10.39;100;96015.39;;;;
2019/05/30 00:01:11;;;;;;;14.05;12.3;;;;;;;10.39;100;96015.39;;;;
2019/05/30 00:02:12;;;;;;;14.05;12.3;;;;;;;10.39;100;96015.39;;;;
2019/05/30 00:03:13;;;;;;;14.05;12.3;;;;;;;10.39;100;96015.39;;;;
2019/05/30 00:04:14;;;;;;;14.05;12.3;;;;;;;10.39;100;96015.39;;;;
2019/05/30 00:05:15;;;;;;;14.05;12.3;;;;;;;10.39;100;96015.39;;;;
2019/05/30 00:06:16;;;;;;;14.05;12.3;;;;;;;10.39;100;96015.39;;;;
2019/05/30 00:07:17;;;;;;;14.05;12.3;;;;;;;10.39;100;96015.39;;;;
2019/05/30 00:08:18;;;;;;;13.7;11.5;;;;;;;10.31;100;96009.42;;;;
2019/05/30 00:09:19;;;;;;;13.7;11.5;;;;;;;10.31;100;96009.42;;;;
2019/05/30 00:10:20;;;;;;;13.7;11.5;;;;;;;10.31;100;96009.42;;;;
2019/05/30 00:11:21;;;;;;;13.7;11.5;;;;;;;10.31;100;96009.42;;;;
2019/05/30 00:12:22;;;;;;;13.7;11.5;;;;;;;10.31;100;96009.42;;;;
2019/05/30 00:13:23;;;;;;;13.7;11.5;;;;;;;10.31;100;96009.42;;;;
2019/05/30 00:14:24;;;;;;;13.7;11.5;;;;;;;10.31;100;96009.42;;;;
2019/05/30 00:15:25;;;;;;;13.7;11.5;;;;;;;10.31;100;96009.42;;;;
2019/05/30 00:16:27;;;;;;;13.7;11.5;;;;;;;10.31;100;96009.42;;;;
2019/05/30 00:17:28;;;;;;;13.7;11.5;;;;;;;10.31;100;96009.42;;;;
2019/05/30 00:18:29;;;;;;;13.7;11.5;;;;;;;10.31;100;96009.42;;;;
2019/05/30 00:19:30;;;;;;;13.7;11.5;;;;;;;10.31;100;96009.42;;;;
2019/05/30 00:20:31;;;;;;;13.7;11.5;;;;;;;10.31;100;96009.42;;;;
2019/05/30 00:21:32;;;;;;;13.7;11.5;;;;;;;10.31;100;96009.42;;;;
2019/05/30 00:22:33;;;;;;;13.7;11.5;;;;;;;10.31;100;96009.42;;;;
2019/05/30 00:23:34;;;;;;;13.7;11.5;;;;;;;10.31;100;96009.42;;;;
2019/05/30 00:24:35;;;;;;;13.7;11.5;;;;;;;10.31;100;96009.42;;;;
2019/05/30 00:25:36;;;;;;;13.7;11.5;;;;;;;10.31;100;96009.42;;;;
2019/05/30 00:26:37;;;;;;;13.7;11.5;;;;;;;10.31;100;96009.42;;;;
2019/05/30 00:27:38;;;;;;;13.7;11.5;;;;;;;10.31;100;96009.42;;;;
2019/05/30 00:28:39;;;;;;;13.7;11.5;;;;;;;10.31;100;96009.42;;;;
2019/05/30 00:29:40;;;;;;;13.7;11.5;;;;;;;10.31;100;96009.42;;;;
2019/05/30 00:30:41;;;;;;;13.7;11.5;;;;;;;10.31;100;96009.42;;;;
2019/05/30 00:31:42;;;;;;;13.7;11.5;;;;;;;10.31;100;96009.42;;;;
2019/05/30 00:32:43;;;;;;;13.7;11.5;;;;;;;10.31;100;96009.42;;;;
2019/05/30 00:33:44;;;;;;;13.7;11.5;;;;;;;10.31;100;96009.42;;;;
2019/05/30 00:34:45;;;;;;;13.7;11.5;;;;;;;10.31;100;96009.42;;;;
2019/05/30 00:35:47;;;;;;;13.7;11.5;;;;;;;10.31;100;96009.42;;;;
2019/05/30 00:36:48;;;;;;;13.7;11.5;;;;;;;10.31;100;96009.42;;;;
2019/05/30 00:37:49;;;;;;;13.7;11.5;;;;;;;10.31;100;96009.42;;;;
2019/05/30 00:38:50;;;;;;;13.7;11.5;;;;;;;10.31;100;96009.42;;;;
2019/05/30 00:39:51;;;;;;;13.7;11.5;;;;;;;10.31;100;96009.42;;;;
2019/05/30 00:40:52;;;;;;;13.7;11.5;;;;;;;10.31;100;96009.42;;;;
2019/05/30 00:41:53;;;;;;;13.7;11.5;;;;;;;10.31;100;96009.42;;;;
2019/05/30 00:42:54;;;;;;;13.7;11.5;;;;;;;10.31;100;96009.42;;;;
2019/05/30 00:43:55;;;;;;;13.7;11.5;;;;;;;10.31;100;96009.42;;;;
2019/05/30 00:44:56;;;;;;;13.7;11.5;;;;;;;10.31;100;96009.42;;;;
2019/05/30 00:45:57;;;;;;;13.7;11.5;;;;;;;10.31;100;96009.42;;;;
2019/05/30 00:46:58;;;;;;;13.7;11.5;;;;;;;10.31;100;96009.42;;;;
2019/05/30 00:47:59;;;;;;;13.7;11.5;;;;;;;10.31;100;96009.42;;;;
2019/05/30 00:49:00;;;;;;;13.7;11.5;;;;;;;10.31;100;96009.42;;;;
2019/05/30 00:50:01;;;;;;;11.95;10.8;;;;;;;9.86;100;96012.2;;;;
2019/05/30 00:51:02;;;;;;;11.95;10.8;;;;;;;9.86;100;96012.2;;;;
2019/05/30 00:52:03;;;;;;;11.95;10.8;;;;;;;9.86;100;96012.2;;;;
2019/05/30 00:53:05;;;;;;;11.95;10.8;;;;;;;9.86;100;96012.2;;;;
2019/05/30 00:54:06;;;;;;;11.95;10.8;;;;;;;9.86;100;96012.2;;;;
2019/05/30 00:55:07;;;;;;;11.95;10.8;;;;;;;9.86;100;96012.2;;;;
2019/05/30 00:56:08;;;;;;;11.95;10.8;;;;;;;9.86;100;96012.2;;;;
2019/05/30 00:57:09;;;;;;;11.95;10.8;;;;;;;9.86;100;96012.2;;;;
2019/05/30 00:58:10;;;;;;;11.95;10.8;;;;;;;9.86;100;96012.2;;;;
2019/05/30 00:59:11;;;;;;;11.95;10.8;;;;;;;9.86;100;96012.2;;;;
2019/05/30 01:00:12;;;;;;;11.95;10.8;;;;;;;9.86;100;96012.2;;;;
2019/05/30 01:01:13;;;;;;;12.85;11.6;;;;;;;9.79;100;96016.77;;;;
2019/05/30 01:02:15;;;;;;;12.85;11.6;;;;;;;9.79;100;96016.77;;;;
2019/05/30 01:03:16;;;;;;;12.85;11.6;;;;;;;9.79;100;96016.77;;;;
2019/05/30 01:04:17;;;;;;;12.85;11.6;;;;;;;9.79;100;96016.77;;;;
2019/05/30 01:05:18;;;;;;;12.85;11.6;;;;;;;9.79;100;96016.77;;;;
2019/05/30 01:06:19;;;;;;;12.85;11.6;;;;;;;9.79;100;96016.77;;;;
2019/05/30 01:07:20;;;;;;;12.85;11.6;;;;;;;9.79;100;96016.77;;;;
2019/05/30 01:08:21;;;;;;;12.85;11.6;;;;;;;9.79;100;96016.77;;;;
2019/05/30 01:09:23;;;;;;;12.85;11.6;;;;;;;9.79;100;96016.77;;;;
2019/05/30 01:10:24;;;;;;;12.85;11.6;;;;;;;9.79;100;96016.77;;;;
2019/05/30 01:11:25;;;;;;;12.85;11.6;;;;;;;9.79;100;96016.77;;;;
2019/05/30 01:12:26;;;;;;;12.85;11.6;;;;;;;9.79;100;96016.77;;;;
2019/05/30 01:13:27;;;;;;;12.85;11.6;;;;;;;9.79;100;96016.77;;;;
2019/05/30 01:14:28;;;;;;;12.85;11.6;;;;;;;9.79;100;96016.77;;;;
2019/05/30 01:15:29;;;;;;;12.85;11.6;;;;;;;9.79;100;96016.77;;;;
2019/05/30 01:16:31;;;;;;;12.85;11.6;;;;;;;9.79;100;96016.77;;;;
2019/05/30 01:17:32;;;;;;;12.85;11.6;;;;;;;9.79;100;96016.77;;;;
2019/05/30 01:18:33;;;;;;;12.85;11.6;;;;;;;9.79;100;96016.77;;;;
2019/05/30 01:19:34;;;;;;;12.85;11.6;;;;;;;9.79;100;96016.77;;;;
2019/05/30 01:20:35;;;;;;;12.85;11.6;;;;;;;9.79;100;96016.77;;;;
2019/05/30 01:21:36;;;;;;;12.85;11.6;;;;;;;9.79;100;96016.77;;;;
2019/05/30 01:22:37;;;;;;;12.85;11.6;;;;;;;9.79;100;96016.77;;;;
2019/05/30 01:23:42;;;;;;;12.85;11.6;;;;;;;9.79;100;96016.77;;;;
2019/05/30 01:24:43;;;;;;;12.85;11.6;;;;;;;9.79;100;96016.77;;;;
2019/05/30 01:25:44;;;;;;;12.85;11.6;;;;;;;9.79;100;96016.77;;;;
2019/05/30 01:26:45;;;;;;;12.85;11.6;;;;;;;9.79;100;96016.77;;;;
2019/05/30 01:27:46;;;;;;;12.85;11.6;;;;;;;9.79;100;96016.77;;;;
2019/05/30 01:28:48;;;;;;;12.85;11.6;;;;;;;9.79;100;96016.77;;;;
2019/05/30 01:29:49;;;;;;;12.85;11.6;;;;;;;9.79;100;96016.77;;;;
2019/05/30 01:30:50;;;;;;;12.85;11.6;;;;;;;9.79;100;96016.77;;;;
2019/05/30 01:31:51;;;;;;;12.85;11.6;;;;;;;9.79;100;96016.77;;;;
2019/05/30 01:32:52;;;;;;;12.85;11.6;;;;;;;9.79;100;96016.77;;;;
2019/05/30 01:33:53;;;;;;;12.85;11.6;;;;;;;9.79;100;96016.77;;;;
2019/05/30 01:34:54;;;;;;;12.85;11.6;;;;;;;9.79;100;96016.77;;;;
2019/05/30 01:35:56;;;;;;;12.85;11.6;;;;;;;9.79;100;96016.77;;;;
2019/05/30 01:36:57;;;;;;;12.85;11.6;;;;;;;9.79;100;96016.77;;;;
2019/05/30 01:37:58;;;;;;;12.85;11.6;;;;;;;9.79;100;96016.77;;;;
2019/05/30 01:38:59;;;;;;;12.85;11.6;;;;;;;9.79;100;96016.77;;;;
2019/05/30 01:40:01;;;;;;;12.85;11.6;;;;;;;9.79;100;96016.77;;;;
2019/05/30 01:41:02;;;;;;;12.85;11.6;;;;;;;9.79;100;96016.77;;;;
2019/05/30 01:42:03;;;;;;;12.85;11.6;;;;;;;9.79;100;96016.77;;;;
2019/05/30 01:43:04;;;;;;;12.85;11.6;;;;;;;9.79;100;96016.77;;;;
2019/05/30 01:44:05;;;;;;;12.85;11.6;;;;;;;9.79;100;96016.77;;;;
2019/05/30 01:45:06;;;;;;;12.85;11.6;;;;;;;9.79;100;96016.77;;;;
2019/05/30 01:54:08;;;;;;;12.35;11.15;;;;;;;8.61;100;96002.56;;;;
2019/05/30 01:55:09;;;;;;;12.35;11.15;;;;;;;8.61;100;96002.56;;;;
2019/05/30 01:56:10;;;;;;;12.35;11.15;;;;;;;8.61;100;96002.56;;;;
2019/05/30 01:57:11;;;;;;;12.35;11.15;;;;;;;8.61;100;96002.56;;;;
2019/05/30 01:58:12;;;;;;;12.35;11.15;;;;;;;8.61;100;96002.56;;;;
2019/05/30 01:59:14;;;;;;;12.35;11.15;;;;;;;8.61;100;96002.56;;;;
2019/05/30 02:00:15;;;;;;;12.35;11.15;;;;;;;8.61;100;96002.56;;;;
2019/05/30 02:01:16;;;;;;;12.35;11.15;;;;;;;8.61;100;96002.56;;;;
2019/05/30 02:02:17;;;;;;;12.35;11.15;;;;;;;8.61;100;96002.56;;;;
2019/05/30 02:03:18;;;;;;;12.35;11.15;;;;;;;8.61;100;96002.56;;;;
2019/05/30 02:04:19;;;;;;;12.35;11.15;;;;;;;8.61;100;96002.56;;;;
2019/05/30 02:05:20;;;;;;;12.35;11.15;;;;;;;8.61;100;96002.56;;;;
2019/05/30 02:06:21;;;;;;;12.35;11.15;;;;;;;8.61;100;96002.56;;;;
2019/05/30 02:07:22;;;;;;;12.35;11.15;;;;;;;8.61;100;96002.56;;;;
2019/05/30 02:08:23;;;;;;;12.35;11.15;;;;;;;8.61;100;96002.56;;;;
2019/05/30 02:09:25;;;;;;;12.35;11.15;;;;;;;8.61;100;96002.56;;;;
2019/05/30 02:10:26;;;;;;;12.35;11.15;;;;;;;8.61;100;96002.56;;;;
2019/05/30 02:11:27;;;;;;;12.35;11.15;;;;;;;8.61;100;96002.56;;;;
2019/05/30 02:12:28;;;;;;;12.35;11.15;;;;;;;8.61;100;96002.56;;;;
2019/05/30 02:13:29;;;;;;;12.35;11.15;;;;;;;8.61;100;96002.56;;;;
2019/05/30 02:14:30;;;;;;;12.35;11.15;;;;;;;8.61;100;96002.56;;;;
2019/05/30 02:15:31;;;;;;;12.8;11.25;;;;;;;8.17;100;96009.38;;;;
2019/05/30 02:16:32;;;;;;;12.8;11.25;;;;;;;8.17;100;96009.38;;;;
2019/05/30 02:17:33;;;;;;;12.8;11.25;;;;;;;8.17;100;96009.38;;;;
2019/05/30 02:18:34;;;;;;;12.8;11.25;;;;;;;8.17;100;96009.38;;;;
2019/05/30 02:19:36;;;;;;;12.8;11.25;;;;;;;8.17;100;96009.38;;;;
2019/05/30 02:20:37;;;;;;;12.8;11.25;;;;;;;8.17;100;96009.38;;;;
2019/05/30 02:21:38;;;;;;;12.8;11.25;;;;;;;8.17;100;96009.38;;;;
2019/05/30 02:22:39;;;;;;;12.8;11.25;;;;;;;8.17;100;96009.38;;;;
2019/05/30 02:23:40;;;;;;;12.8;11.25;;;;;;;8.17;100;96009.38;;;;
2019/05/30 02:24:41;;;;;;;12.8;11.25;;;;;;;8.17;100;96009.38;;;;
2019/05/30 02:25:42;;;;;;;12.35;11.05;;;;;;;8.05;100;96011.52;;;;
2019/05/30 02:26:44;;;;;;;12.35;11.05;;;;;;;8.05;100;96011.52;;;;
2019/05/30 02:27:45;;;;;;;12.35;11.05;;;;;;;8.05;100;96011.52;;;;
2019/05/30 02:28:46;;;;;;;12.35;11.05;;;;;;;8.05;100;96011.52;;;;
2019/05/30 02:29:47;;;;;;;12.35;11.05;;;;;;;8.05;100;96011.52;;;;
2019/05/30 02:30:48;;;;;;;12.35;11.05;;;;;;;8.05;100;96011.52;;;;
2019/05/30 02:31:49;;;;;;;12.35;11.05;;;;;;;8.05;100;96011.52;;;;
2019/05/30 02:32:50;;;;;;;12.35;11.05;;;;;;;8.05;100;96011.52;;;;
2019/05/30 02:33:51;;;;;;;12.35;11.05;;;;;;;8.05;100;96011.52;;;;
2019/05/30 02:34:53;;;;;;;12.35;11.05;;;;;;;8.05;100;96011.52;;;;
2019/05/30 02:35:54;;;;;;;12.35;11.05;;;;;;;8.05;100;96011.52;;;;
2019/05/30 02:36:55;;;;;;;12.35;11.05;;;;;;;8.05;100;96011.52;;;;
2019/05/30 02:37:56;;;;;;;12.35;11.05;;;;;;;8.05;100;96011.52;;;;
2019/05/30 02:38:57;;;;;;;12.35;11.05;;;;;;;8.05;100;96011.52;;;;
2019/05/30 02:39:59;;;;;;;12.35;11.05;;;;;;;8.05;100;96011.52;;;;
2019/05/30 02:41:00;;;;;;;12.35;11.05;;;;;;;8.05;100;96011.52;;;;
2019/05/30 02:42:01;;;;;;;12.35;11.05;;;;;;;8.05;100;96011.52;;;;
2019/05/30 02:43:02;;;;;;;12.35;11.05;;;;;;;8.05;100;96011.52;;;;
2019/05/30 02:44:03;;;;;;;12.35;11.05;;;;;;;8.05;100;96011.52;;;;
2019/05/30 02:45:04;;;;;;;12.35;11.05;;;;;;;8.05;100;96011.52;;;;
2019/05/30 02:46:05;;;;;;;12.35;11.05;;;;;;;8.05;100;96011.52;;;;
2019/05/30 02:47:07;;;;;;;13.1;11.75;;;;;;;8.1;100;96018.45;;;;
2019/05/30 02:48:08;;;;;;;13.1;11.75;;;;;;;8.1;100;96018.45;;;;
2019/05/30 02:49:09;;;;;;;13.1;11.75;;;;;;;8.1;100;96018.45;;;;
2019/05/30 02:50:10;;;;;;;13.1;11.75;;;;;;;8.1;100;96018.45;;;;
2019/05/30 02:51:11;;;;;;;13.1;11.75;;;;;;;8.1;100;96018.45;;;;
2019/05/30 02:52:12;;;;;;;13.1;11.75;;;;;;;8.1;100;96018.45;;;;
2019/05/30 02:53:13;;;;;;;13.1;11.75;;;;;;;8.1;100;96018.45;;;;
2019/05/30 02:54:14;;;;;;;13.1;11.75;;;;;;;8.1;100;96018.45;;;;
2019/05/30 02:55:15;;;;;;;13.1;11.75;;;;;;;8.1;100;96018.45;;;;
2019/05/30 02:56:16;;;;;;;13.1;11.75;;;;;;;8.1;100;96018.45;;;;
2019/05/30 02:57:18;;;;;;;13.1;11.75;;;;;;;8.1;100;96018.45;;;;
2019/05/30 02:58:19;;;;;;;13.1;11.75;;;;;;;8.1;100;96018.45;;;;
2019/05/30 02:59:20;;;;;;;13.1;11.75;;;;;;;8.1;100;96018.45;;;;
2019/05/30 03:00:21;;;;;;;13.1;11.75;;;;;;;8.1;100;96018.45;;;;
2019/05/30 03:01:31;;;;;;;13.1;11.75;;;;;;;8.1;100;96018.45;;;;
2019/05/30 03:02:32;;;;;;;13.1;11.75;;;;;;;8.1;100;96018.45;;;;
2019/05/30 03:03:33;;;;;;;13.1;11.75;;;;;;;8.1;100;96018.45;;;;
2019/05/30 03:04:34;;;;;;;13.1;11.75;;;;;;;8.1;100;96018.45;;;;
2019/05/30 03:05:35;;;;;;;13.1;11.75;;;;;;;8.1;100;96018.45;;;;
2019/05/30 03:06:36;;;;;;;13.1;11.75;;;;;;;8.1;100;96018.45;;;;
2019/05/30 03:07:37;;;;;;;13.1;11.75;;;;;;;8.1;100;96018.45;;;;
2019/05/30 03:08:38;;;;;;;13.1;11.75;;;;;;;8.1;100;96018.45;;;;
2019/05/30 03:09:39;;;;;;;13.1;11.75;;;;;;;8.1;100;96018.45;;;;
2019/05/30 03:10:40;;;;;;;13.1;11.75;;;;;;;8.1;100;96018.45;;;;
2019/05/30 03:11:41;;;;;;;13.1;11.75;;;;;;;8.1;100;96018.45;;;;
2019/05/30 03:12:42;;;;;;;13.1;11.75;;;;;;;8.1;100;96018.45;;;;
2019/05/30 03:13:43;;;;;;;13.1;11.75;;;;;;;8.1;100;96018.45;;;;
2019/05/30 03:14:44;;;;;;;13.1;11.75;;;;;;;8.1;100;96018.45;;;;
2019/05/30 03:15:45;;;;;;;13.1;11.75;;;;;;;8.1;100;96018.45;;;;
2019/05/30 03:16:46;;;;;;;13.1;11.75;;;;;;;8.1;100;96018.45;;;;
2019/05/30 03:17:48;;;;;;;13.1;11.75;;;;;;;8.1;100;96018.45;;;;
2019/05/30 03:18:49;;;;;;;13.1;11.75;;;;;;;8.1;100;96018.45;;;;
2019/05/30 03:19:50;;;;;;;13.1;11.75;;;;;;;8.1;100;96018.45;;;;
2019/05/30 03:20:51;;;;;;;13.1;11.75;;;;;;;8.1;100;96018.45;;;;
2019/05/30 03:21:52;;;;;;;13.1;11.75;;;;;;;8.1;100;96018.45;;;;
2019/05/30 03:22:53;;;;;;;13.1;11.75;;;;;;;8.1;100;96018.45;;;;
2019/05/30 03:23:54;;;;;;;13.1;11.75;;;;;;;8.1;100;96018.45;;;;
2019/05/30 03:24:55;;;;;;;13.1;11.75;;;;;;;8.1;100;96018.45;;;;
2019/05/30 03:25:56;;;;;;;13.1;11.75;;;;;;;8.1;100;96018.45;;;;
2019/05/30 03:26:57;;;;;;;13.1;11.75;;;;;;;8.1;100;96018.45;;;;
2019/05/30 03:27:58;;;;;;;13.1;11.75;;;;;;;8.1;100;96018.45;;;;
2019/05/30 03:28:59;;;;;;;13.1;11.75;;;;;;;8.1;100;96018.45;;;;
2019/05/30 03:30:00;;;;;;;13.1;11.75;;;;;;;8.1;100;96018.45;;;;
2019/05/30 03:31:01;;;;;;;13.1;11.75;;;;;;;8.1;100;96018.45;;;;
2019/05/30 04:44:06;;;;;;;15.15;13.4;;;;;;;9.63;100;96102.07;;;;
2019/05/30 04:45:07;;;;;;;15.15;13.4;;;;;;;9.63;100;96102.07;;;;
2019/05/30 04:46:08;;;;;;;15.15;13.4;;;;;;;9.63;100;96102.07;;;;
2019/05/30 04:47:10;;;;;;;15.15;13.4;;;;;;;9.63;100;96102.07;;;;
2019/05/30 04:48:11;;;;;;;15.15;13.4;;;;;;;9.63;100;96102.07;;;;
2019/05/30 04:49:12;;;;;;;15.15;13.4;;;;;;;9.63;100;96102.07;;;;
2019/05/30 04:50:13;;;;;;;15.15;13.4;;;;;;;9.63;100;96102.07;;;;
2019/05/30 04:51:14;;;;;;;15.15;13.4;;;;;;;9.63;100;96102.07;;;;
2019/05/30 04:52:15;;;;;;;15.15;13.4;;;;;;;9.63;100;96102.07;;;;
2019/05/30 04:53:16;;;;;;;15.15;13.4;;;;;;;9.63;100;96102.07;;;;
2019/05/30 04:54:17;;;;;;;15.5;13.7;;;;;;;9.93;100;96106.06;;;;
2019/05/30 04:55:18;;;;;;;15.5;13.7;;;;;;;9.93;100;96106.06;;;;
2019/05/30 04:56:19;;;;;;;15.5;13.7;;;;;;;9.93;100;96106.06;;;;
2019/05/30 04:57:21;;;;;;;15.5;13.7;;;;;;;9.93;100;96106.06;;;;
2019/05/30 04:58:22;;;;;;;15.5;13.7;;;;;;;9.93;100;96106.06;;;;
2019/05/30 04:59:23;;;;;;;15.5;13.7;;;;;;;9.93;100;96106.06;;;;
2019/05/30 05:00:24;;;;;;;15.5;13.7;;;;;;;9.93;100;96106.06;;;;
2019/05/30 05:01:25;;;;;;;15.5;13.7;;;;;;;9.93;100;96106.06;;;;
2019/05/30 05:02:26;;;;;;;15.5;13.7;;;;;;;9.93;100;96106.06;;;;
2019/05/30 05:03:27;;;;;;;15.5;13.7;;;;;;;9.93;100;96106.06;;;;
2019/05/30 05:04:28;;;;;;;15.5;13.7;;;;;;;9.93;100;96106.06;;;;
2019/05/30 05:05:29;;;;;;;15.5;13.7;;;;;;;9.93;100;96106.06;;;;
2019/05/30 05:06:30;;;;;;;15.5;13.7;;;;;;;9.93;100;96106.06;;;;
2019/05/30 05:07:31;;;;;;;15.5;13.7;;;;;;;9.93;100;96106.06;;;;
2019/05/30 05:08:32;;;;;;;15.5;13.7;;;;;;;9.93;100;96106.06;;;;
2019/05/30 05:09:33;;;;;;;15.5;13.7;;;;;;;9.93;100;96106.06;;;;
2019/05/30 05:10:34;;;;;;;15.5;13.7;;;;;;;9.93;100;96106.06;;;;
2019/05/30 05:11:35;;;;;;;15.5;13.7;;;;;;;9.93;100;96106.06;;;;
2019/05/30 05:12:36;;;;;;;15.5;13.7;;;;;;;9.93;100;96106.06;;;;
2019/05/30 05:13:37;;;;;;;15.5;13.7;;;;;;;9.93;100;96106.06;;;;
2019/05/30 05:14:39;;;;;;;15.5;13.7;;;;;;;9.93;100;96106.06;;;;
2019/05/30 05:15:40;;;;;;;15.5;13.7;;;;;;;9.93;100;96106.06;;;;
2019/05/30 05:16:41;;;;;;;15.5;13.7;;;;;;;9.93;100;96106.06;;;;
2019/05/30 05:17:42;;;;;;;15.5;13.7;;;;;;;9.93;100;96106.06;;;;
2019/05/30 05:18:43;;;;;;;15.5;13.7;;;;;;;9.93;100;96106.06;;;;
2019/05/30 05:19:44;;;;;;;15.5;13.7;;;;;;;9.93;100;96106.06;;;;
2019/05/30 05:20:45;;;;;;;15.5;13.7;;;;;;;9.93;100;96106.06;;;;
2019/05/30 05:21:46;;;;;;;15.5;13.7;;;;;;;9.93;100;96106.06;;;;
2019/05/30 05:22:47;;;;;;;15.5;13.7;;;;;;;9.93;100;96106.06;;;;
2019/05/30 05:23:48;;;;;;;15.5;13.7;;;;;;;9.93;100;96106.06;;;;
2019/05/30 05:24:49;;;;;;;15.5;13.7;;;;;;;9.93;100;96106.06;;;;
2019/05/30 05:25:50;;;;;;;12.85;11.4;;;;;;;10.93;100;96124.64;;;;
2019/05/30 05:26:51;;;;;;;12.85;11.4;;;;;;;10.93;100;96124.64;;;;
2019/05/30 05:27:52;;;;;;;12.85;11.4;;;;;;;10.93;100;96124.64;;;;
2019/05/30 05:28:53;;;;;;;12.85;11.4;;;;;;;10.93;100;96124.64;;;;
2019/05/30 05:29:54;;;;;;;12.85;11.4;;;;;;;10.93;100;96124.64;;;;
2019/05/30 05:30:55;;;;;;;12.85;11.4;;;;;;;10.93;100;96124.64;;;;
2019/05/30 05:31:56;;;;;;;12.85;11.4;;;;;;;10.93;100;96124.64;;;;
2019/05/30 05:32:57;;;;;;;12.85;11.4;;;;;;;10.93;100;96124.64;;;;
2019/05/30 05:33:59;;;;;;;12.85;11.4;;;;;;;10.93;100;96124.64;;;;
2019/05/30 05:35:00;;;;;;;12.85;11.4;;;;;;;10.93;100;96124.64;;;;
2019/05/30 05:36:01;;;;;;;12.85;11.4;;;;;;;10.93;100;96124.64;;;;
2019/05/30 05:37:02;;;;;;;12.85;11.4;;;;;;;10.93;100;96124.64;;;;
2019/05/30 05:38:03;;;;;;;12.85;11.4;;;;;;;10.93;100;96124.64;;;;
2019/05/30 05:39:04;;;;;;;12.85;11.4;;;;;;;10.93;100;96124.64;;;;
2019/05/30 05:40:05;;;;;;;12.85;11.4;;;;;;;10.93;100;96124.64;;;;
2019/05/30 05:41:07;;;;;;;12.85;11.4;;;;;;;10.93;100;96124.64;;;;
2019/05/30 05:42:08;;;;;;;12.85;11.4;;;;;;;10.93;100;96124.64;;;;
2019/05/30 05:43:10;;;;;;;12.85;11.4;;;;;;;10.93;100;96124.64;;;;
2019/05/30 05:44:11;;;;;;;12.85;11.4;;;;;;;10.93;100;96124.64;;;;
2019/05/30 05:45:12;;;;;;;12.85;11.4;;;;;;;10.93;100;96124.64;;;;
2019/05/30 05:46:14;;;;;;;12.85;11.4;;;;;;;10.93;100;96124.64;;;;
2019/05/30 05:47:15;;;;;;;12.85;11.4;;;;;;;10.93;100;96124.64;;;;
2019/05/30 05:48:16;;;;;;;12.85;11.4;;;;;;;10.93;100;96124.64;;;;
2019/05/30 05:49:17;;;;;;;12.85;11.4;;;;;;;10.93;100;96124.64;;;;
2019/05/30 05:50:18;;;;;;;12.85;11.4;;;;;;;10.93;100;96124.64;;;;
2019/05/30 05:51:19;;;;;;;12.85;11.4;;;;;;;10.93;100;96124.64;;;;
2019/05/30 05:52:20;;;;;;;12.85;11.4;;;;;;;10.93;100;96124.64;;;;
2019/05/30 05:53:21;;;;;;;12.85;11.4;;;;;;;10.93;100;96124.64;;;;
2019/05/30 05:54:22;;;;;;;12.85;11.4;;;;;;;10.93;100;96124.64;;;;
2019/05/30 05:55:23;;;;;;;12.85;11.4;;;;;;;10.93;100;96124.64;;;;
2019/05/30 05:56:24;;;;;;;12.85;11.4;;;;;;;10.93;100;96124.64;;;;
2019/05/30 05:57:25;;;;;;;12.85;11.4;;;;;;;10.93;100;96124.64;;;;
2019/05/30 05:58:26;;;;;;;12.85;11.4;;;;;;;10.93;100;96124.64;;;;
2019/05/30 05:59:27;;;;;;;12.85;11.4;;;;;;;10.93;100;96124.64;;;;
2019/05/30 06:00:28;;;;;;;12.85;11.4;;;;;;;10.93;100;96124.64;;;;
2019/05/30 06:01:29;;;;;;;12.85;11.4;;;;;;;10.93;100;96124.64;;;;
2019/05/30 06:02:30;;;;;;;12.85;11.4;;;;;;;10.93;100;96124.64;;;;
2019/05/30 06:03:32;;;;;;;12.85;11.4;;;;;;;10.93;100;96124.64;;;;
2019/05/30 06:04:33;;;;;;;12.85;11.4;;;;;;;10.93;100;96124.64;;;;
2019/05/30 06:05:34;;;;;;;12.85;11.4;;;;;;;10.93;100;96124.64;;;;
2019/05/30 06:06:35;;;;;;;12.85;11.4;;;;;;;10.93;100;96124.64;;;;
2019/05/30 06:07:36;;;;;;;12.85;11.4;;;;;;;10.93;100;96124.64;;;;
2019/05/30 06:08:37;;;;;;;12.85;11.4;;;;;;;10.93;100;96124.64;;;;
2019/05/30 06:09:38;;;;;;;12.85;11.4;;;;;;;10.93;100;96124.64;;;;
2019/05/30 06:10:39;;;;;;;12.85;11.4;;;;;;;10.93;100;96124.64;;;;
2019/05/30 06:29:42;;;;;;;12.4;9.950001;;;;;;;12.88;100;96158.58;;;;
2019/05/30 06:30:43;;;;;;;12.4;9.950001;;;;;;;12.88;100;96158.58;;;;
2019/05/30 06:31:44;;;;;;;12.4;9.950001;;;;;;;12.88;100;96158.58;;;;
2019/05/30 06:32:45;;;;;;;12.4;9.950001;;;;;;;12.88;100;96158.58;;;;
2019/05/30 06:33:46;;;;;;;12.4;9.950001;;;;;;;12.88;100;96158.58;;;;
2019/05/30 06:34:47;;;;;;;12.4;9.950001;;;;;;;12.88;100;96158.58;;;;
2019/05/30 06:35:48;;;;;;;12.4;9.950001;;;;;;;12.88;100;96158.58;;;;
2019/05/30 06:36:49;;;;;;;12.4;9.950001;;;;;;;12.88;100;96158.58;;;;
2019/05/30 06:37:51;;;;;;;12.4;9.950001;;;;;;;12.88;100;96158.58;;;;
2019/05/30 06:38:52;;;;;;;12.4;9.950001;;;;;;;12.88;100;96158.58;;;;
2019/05/30 06:39:53;;;;;;;12.4;9.950001;;;;;;;12.88;100;96158.58;;;;
2019/05/30 06:40:54;;;;;;;12.4;9.950001;;;;;;;12.88;100;96158.58;;;;
2019/05/30 06:41:55;;;;;;;12.4;9.950001;;;;;;;12.88;100;96158.58;;;;
2019/05/30 06:42:56;;;;;;;12.4;9.950001;;;;;;;12.88;100;96158.58;;;;
2019/05/30 06:43:57;;;;;;;12.4;9.950001;;;;;;;12.88;100;96158.58;;;;
2019/05/30 06:44:58;;;;;;;12.4;9.950001;;;;;;;12.88;100;96158.58;;;;
2019/05/30 06:45:59;;;;;;;12.4;9.950001;;;;;;;12.88;100;96158.58;;;;
2019/05/30 06:47:00;;;;;;;12.4;9.950001;;;;;;;12.88;100;96158.58;;;;
2019/05/30 06:48:01;;;;;;;12.4;9.950001;;;;;;;12.88;100;96158.58;;;;
2019/05/30 06:49:02;;;;;;;12.4;9.950001;;;;;;;12.88;100;96158.58;;;;
2019/05/30 06:50:03;;;;;;;12.4;9.950001;;;;;;;12.88;100;96158.58;;;;
2019/05/30 06:51:05;;;;;;;12.4;9.950001;;;;;;;12.88;100;96158.58;;;;
2019/05/30 06:52:06;;;;;;;12.4;9.950001;;;;;;;12.88;100;96158.58;;;;
2019/05/30 06:53:07;;;;;;;12.4;9.950001;;;;;;;12.88;100;96158.58;;;;
2019/05/30 06:54:08;;;;;;;12.4;9.950001;;;;;;;12.88;100;96158.58;;;;
2019/05/30 06:55:09;;;;;;;12.4;9.950001;;;;;;;12.88;100;96158.58;;;;
2019/05/30 06:56:11;;;;;;;12.4;9.950001;;;;;;;12.88;100;96158.58;;;;
2019/05/30 06:57:12;;;;;;;12.4;9.950001;;;;;;;12.88;100;96158.58;;;;
2019/05/30 06:58:13;;;;;;;12.4;9.950001;;;;;;;12.88;100;96158.58;;;;
2019/05/30 06:59:14;;;;;;;12.4;9.950001;;;;;;;12.88;100;96158.58;;;;
2019/05/30 07:00:16;;;;;;;12.4;9.950001;;;;;;;12.88;100;96158.58;;;;
2019/05/30 07:01:17;;;;;;;12.4;9.950001;;;;;;;12.88;100;96158.58;;;;
2019/05/30 07:02:18;;;;;;;12.4;9.950001;;;;;;;12.88;100;96158.58;;;;
2019/05/30 07:03:19;;;;;;;12.4;9.950001;;;;;;;12.88;100;96158.58;;;;
2019/05/30 07:04:20;;;;;;;12.4;9.950001;;;;;;;12.88;100;96158.58;;;;
2019/05/30 07:05:21;;;;;;;12.4;9.950001;;;;;;;12.88;100;96158.58;;;;
2019/05/30 07:06:22;;;;;;;12.4;9.950001;;;;;;;12.88;100;96158.58;;;;
2019/05/30 07:07:23;;;;;;;12.4;9.950001;;;;;;;12.88;100;96158.58;;;;
2019/05/30 07:08:24;;;;;;;12.4;9.950001;;;;;;;12.88;100;96158.58;;;;
2019/05/30 07:09:25;;;;;;;12.4;9.950001;;;;;;;12.88;100;96158.58;;;;
2019/05/30 07:10:26;;;;;;;12.4;9.950001;;;;;;;12.88;100;96158.58;;;;
2019/05/30 07:11:28;;;;;;;12.4;9.950001;;;;;;;12.88;100;96158.58;;;;
2019/05/30 07:12:29;;;;;;;12.4;9.950001;;;;;;;12.88;100;96158.58;;;;
2019/05/30 07:13:30;;;;;;;12.4;9.950001;;;;;;;12.88;100;96158.58;;;;
2019/05/30 08:26:35;;;;;;;3.95;3.55;;;;;;;20.98;100;96201.82;;;;
2019/05/30 08:27:36;;;;;;;3.95;3.55;;;;;;;20.98;100;96201.82;;;;
2019/05/30 08:28:37;;;;;;;3.95;3.55;;;;;;;20.98;100;96201.82;;;;
2019/05/30 08:29:38;;;;;;;3.95;3.55;;;;;;;20.98;100;96201.82;;;;
2019/05/30 08:30:39;;;;;;;3.95;3.55;;;;;;;20.98;100;96201.82;;;;
2019/05/30 08:31:40;;;;;;;3.95;3.55;;;;;;;20.98;100;96201.82;;;;
2019/05/30 08:32:41;;;;;;;3.95;3.55;;;;;;;20.98;100;96201.82;;;;
2019/05/30 08:33:42;;;;;;;3.95;3.55;;;;;;;20.98;100;96201.82;;;;
2019/05/30 08:34:43;;;;;;;3.95;3.55;;;;;;;20.98;100;96201.82;;;;
2019/05/30 08:35:44;;;;;;;3.95;3.55;;;;;;;20.98;100;96201.82;;;;
2019/05/30 08:36:45;;;;;;;3.95;3.55;;;;;;;20.98;100;96201.82;;;;
2019/05/30 08:37:46;;;;;;;3.95;3.55;;;;;;;20.98;100;96201.82;;;;
2019/05/30 08:38:47;;;;;;;3.95;3.55;;;;;;;20.98;100;96201.82;;;;
2019/05/30 08:39:48;;;;;;;3.95;3.55;;;;;;;20.98;100;96201.82;;;;
2019/05/30 08:40:50;;;;;;;3.95;3.55;;;;;;;20.98;100;96201.82;;;;
2019/05/30 08:41:51;;;;;;;3.95;3.55;;;;;;;20.98;100;96201.82;;;;
2019/05/30 08:42:52;;;;;;;3.95;3.55;;;;;;;20.98;100;96201.82;;;;
2019/05/30 08:43:53;;;;;;;3.95;3.55;;;;;;;20.98;100;96201.82;;;;
2019/05/30 08:44:54;;;;;;;3.95;3.55;;;;;;;20.98;100;96201.82;;;;
2019/05/30 08:45:55;;;;;;;3.95;3.55;;;;;;;20.98;100;96201.82;;;;
2019/05/30 08:46:56;;;;;;;3.95;3.55;;;;;;;20.98;100;96201.82;;;;
2019/05/30 08:47:57;;;;;;;3.95;3.55;;;;;;;20.98;100;96201.82;;;;
2019/05/30 08:48:58;;;;;;;3.95;3.55;;;;;;;20.98;100;96201.82;;;;
2019/05/30 08:49:59;;;;;;;3.95;3.55;;;;;;;20.98;100;96201.82;;;;
2019/05/30 08:51:01;;;;;;;3.95;3.55;;;;;;;20.98;100;96201.82;;;;
2019/05/30 08:52:02;;;;;;;3.95;3.55;;;;;;;20.98;100;96201.82;;;;
2019/05/30 08:53:03;;;;;;;3.95;3.55;;;;;;;20.98;100;96201.82;;;;
2019/05/30 08:54:04;;;;;;;3.95;3.55;;;;;;;20.98;100;96201.82;;;;
2019/05/30 08:55:05;;;;;;;3.95;3.55;;;;;;;20.98;100;96201.82;;;;
2019/05/30 08:56:06;;;;;;;3.95;3.55;;;;;;;20.98;100;96201.82;;;;
2019/05/30 08:57:07;;;;;;;3.95;3.55;;;;;;;20.98;100;96201.82;;;;
2019/05/30 08:58:08;;;;;;;3.95;3.55;;;;;;;20.98;100;96201.82;;;;
2019/05/30 08:59:09;;;;;;;3.95;3.55;;;;;;;20.98;100;96201.82;;;;